sensor_id;sensor_type;location;lat;lon;timestamp;P1;durP1;ratioP1;P2;durP2;ratioP2
7076;SDS011;3579;48.956;9.154;2023-03-01T00:01:04;2.37;;;1.90;;
7076;SDS011;3579;48.956;9.154;2023-03-01T00:03:32;2.20;;;1.70;;
7076;SDS011;3579;48.956;9.154;2023-03-01T00:05:59;2.03;;;1.70;;
7076;SDS011;3579;48.956;9.154;2023-03-01T00:08:26;1.97;;;1.80;;
7076;SDS011;3579;48.956;9.154;2023-03-01T00:13:27;2.17;;;1.80;;
7076;SDS011;3579;48.956;9.154;2023-03-01T00:15:53;2.27;;;1.87;;
7076;SDS011;3579;48.956;9.154;2023-03-01T00:18:20;2.20;;;1.70;;
7076;SDS011;3579;48.956;9.154;2023-03-01T00:20:50;2.10;;;1.90;;
7076;SDS011;3579;48.956;9.154;2023-03-01T00:23:20;2.37;;;1.97;;
7076;SDS011;3579;48.956;9.154;2023-03-01T00:25:47;2.20;;;1.73;;
7076;SDS011;3579;48.956;9.154;2023-03-01T00:28:13;2.27;;;1.80;;
7076;SDS011;3579;48.956;9.154;2023-03-01T00:30:39;1.70;;;1.60;;
7076;SDS011;3579;48.956;9.154;2023-03-01T00:33:05;2.20;;;2.00;;
7076;SDS011;3579;48.956;9.154;2023-03-01T00:35:31;1.70;;;1.60;;
7076;SDS011;3579;48.956;9.154;2023-03-01T00:37:58;1.67;;;1.50;;
7076;SDS011;3579;48.956;9.154;2023-03-01T00:40:25;1.90;;;1.70;;
7076;SDS011;3579;48.956;9.154;2023-03-01T00:42:51;2.13;;;1.80;;
7076;SDS011;3579;48.956;9.154;2023-03-01T00:45:17;2.77;;;1.90;;
7076;SDS011;3579;48.956;9.154;2023-03-01T00:47:43;2.00;;;1.80;;
7076;SDS011;3579;48.956;9.154;2023-03-01T00:50:10;1.97;;;1.60;;
7076;SDS011;3579;48.956;9.154;2023-03-01T00:52:37;1.70;;;1.57;;
7076;SDS011;3579;48.956;9.154;2023-03-01T00:55:03;2.23;;;1.80;;
7076;SDS011;3579;48.956;9.154;2023-03-01T00:57:30;1.90;;;1.70;;
7076;SDS011;3579;48.956;9.154;2023-03-01T00:59:57;2.10;;;1.70;;
7076;SDS011;3579;48.956;9.154;2023-03-01T01:02:23;1.73;;;1.63;;
7076;SDS011;3579;48.956;9.154;2023-03-01T01:04:49;1.90;;;1.67;;
7076;SDS011;3579;48.956;9.154;2023-03-01T01:07:15;2.00;;;1.70;;
7076;SDS011;3579;48.956;9.154;2023-03-01T01:09:42;1.83;;;1.50;;
7076;SDS011;3579;48.956;9.154;2023-03-01T01:12:08;2.60;;;1.73;;
7076;SDS011;3579;48.956;9.154;2023-03-01T01:14:34;1.67;;;1.50;;
7076;SDS011;3579;48.956;9.154;2023-03-01T01:17:01;2.23;;;1.67;;
7076;SDS011;3579;48.956;9.154;2023-03-01T01:19:27;1.87;;;1.60;;
7076;SDS011;3579;48.956;9.154;2023-03-01T01:21:53;2.13;;;1.60;;
7076;SDS011;3579;48.956;9.154;2023-03-01T01:24:19;2.20;;;1.73;;
7076;SDS011;3579;48.956;9.154;2023-03-01T01:26:45;2.50;;;1.70;;
7076;SDS011;3579;48.956;9.154;2023-03-01T01:29:11;1.70;;;1.60;;
7076;SDS011;3579;48.956;9.154;2023-03-01T01:31:38;1.93;;;1.70;;
7076;SDS011;3579;48.956;9.154;2023-03-01T01:34:06;1.63;;;1.53;;
7076;SDS011;3579;48.956;9.154;2023-03-01T01:36:36;1.90;;;1.70;;
7076;SDS011;3579;48.956;9.154;2023-03-01T01:39:02;1.63;;;1.53;;
7076;SDS011;3579;48.956;9.154;2023-03-01T01:41:29;1.67;;;1.53;;
7076;SDS011;3579;48.956;9.154;2023-03-01T01:44:12;2.07;;;1.80;;
7076;SDS011;3579;48.956;9.154;2023-03-01T01:49:39;2.00;;;1.70;;
7076;SDS011;3579;48.956;9.154;2023-03-01T01:52:32;2.00;;;1.50;;
7076;SDS011;3579;48.956;9.154;2023-03-01T01:57:37;1.63;;;1.50;;
7076;SDS011;3579;48.956;9.154;2023-03-01T02:00:09;1.73;;;1.63;;
7076;SDS011;3579;48.956;9.154;2023-03-01T02:02:38;1.90;;;1.73;;
7076;SDS011;3579;48.956;9.154;2023-03-01T02:05:09;1.70;;;1.60;;
7076;SDS011;3579;48.956;9.154;2023-03-01T02:07:49;1.80;;;1.60;;
7076;SDS011;3579;48.956;9.154;2023-03-01T02:10:16;1.67;;;1.53;;
7076;SDS011;3579;48.956;9.154;2023-03-01T02:12:42;1.57;;;1.47;;
7076;SDS011;3579;48.956;9.154;2023-03-01T02:15:09;1.80;;;1.70;;
7076;SDS011;3579;48.956;9.154;2023-03-01T02:17:35;1.83;;;1.40;;
7076;SDS011;3579;48.956;9.154;2023-03-01T02:22:47;1.97;;;1.63;;
7076;SDS011;3579;48.956;9.154;2023-03-01T02:27:53;1.73;;;1.47;;
7076;SDS011;3579;48.956;9.154;2023-03-01T02:30:24;1.70;;;1.60;;
7076;SDS011;3579;48.956;9.154;2023-03-01T02:32:53;1.67;;;1.57;;
7076;SDS011;3579;48.956;9.154;2023-03-01T02:35:29;2.20;;;1.60;;
7076;SDS011;3579;48.956;9.154;2023-03-01T02:37:58;1.63;;;1.40;;
7076;SDS011;3579;48.956;9.154;2023-03-01T02:40:28;2.03;;;1.70;;
7076;SDS011;3579;48.956;9.154;2023-03-01T02:42:56;1.70;;;1.43;;
7076;SDS011;3579;48.956;9.154;2023-03-01T02:45:24;1.60;;;1.50;;
7076;SDS011;3579;48.956;9.154;2023-03-01T02:47:55;1.67;;;1.43;;
7076;SDS011;3579;48.956;9.154;2023-03-01T02:50:34;1.67;;;1.40;;
7076;SDS011;3579;48.956;9.154;2023-03-01T02:53:32;1.60;;;1.50;;
7076;SDS011;3579;48.956;9.154;2023-03-01T02:56:06;1.60;;;1.40;;
7076;SDS011;3579;48.956;9.154;2023-03-01T02:58:41;1.90;;;1.60;;
7076;SDS011;3579;48.956;9.154;2023-03-01T03:01:10;1.80;;;1.50;;
7076;SDS011;3579;48.956;9.154;2023-03-01T03:03:38;1.57;;;1.43;;
7076;SDS011;3579;48.956;9.154;2023-03-01T03:06:05;1.77;;;1.53;;
7076;SDS011;3579;48.956;9.154;2023-03-01T03:08:31;1.70;;;1.50;;
7076;SDS011;3579;48.956;9.154;2023-03-01T03:10:57;1.63;;;1.53;;
7076;SDS011;3579;48.956;9.154;2023-03-01T03:13:23;1.43;;;1.23;;
7076;SDS011;3579;48.956;9.154;2023-03-01T03:15:56;2.03;;;1.67;;
7076;SDS011;3579;48.956;9.154;2023-03-01T03:18:23;1.63;;;1.30;;
7076;SDS011;3579;48.956;9.154;2023-03-01T03:20:53;1.43;;;1.33;;
7076;SDS011;3579;48.956;9.154;2023-03-01T03:23:20;1.57;;;1.37;;
7076;SDS011;3579;48.956;9.154;2023-03-01T03:25:48;1.57;;;1.43;;
7076;SDS011;3579;48.956;9.154;2023-03-01T03:28:15;1.30;;;1.20;;
7076;SDS011;3579;48.956;9.154;2023-03-01T03:30:41;1.40;;;1.30;;
7076;SDS011;3579;48.956;9.154;2023-03-01T03:33:08;1.67;;;1.53;;
7076;SDS011;3579;48.956;9.154;2023-03-01T03:35:43;1.53;;;1.40;;
7076;SDS011;3579;48.956;9.154;2023-03-01T03:38:11;1.57;;;1.40;;
7076;SDS011;3579;48.956;9.154;2023-03-01T03:40:43;1.77;;;1.53;;
7076;SDS011;3579;48.956;9.154;2023-03-01T03:43:21;1.50;;;1.40;;
7076;SDS011;3579;48.956;9.154;2023-03-01T03:45:49;1.67;;;1.40;;
7076;SDS011;3579;48.956;9.154;2023-03-01T03:48:16;1.60;;;1.47;;
7076;SDS011;3579;48.956;9.154;2023-03-01T03:50:47;1.93;;;1.50;;
7076;SDS011;3579;48.956;9.154;2023-03-01T03:53:14;1.37;;;1.27;;
7076;SDS011;3579;48.956;9.154;2023-03-01T03:55:41;1.50;;;1.40;;
7076;SDS011;3579;48.956;9.154;2023-03-01T03:58:07;1.47;;;1.37;;
7076;SDS011;3579;48.956;9.154;2023-03-01T04:00:35;1.43;;;1.33;;
7076;SDS011;3579;48.956;9.154;2023-03-01T04:03:13;1.47;;;1.30;;
7076;SDS011;3579;48.956;9.154;2023-03-01T04:05:41;1.50;;;1.27;;
7076;SDS011;3579;48.956;9.154;2023-03-01T04:08:11;1.60;;;1.50;;
7076;SDS011;3579;48.956;9.154;2023-03-01T04:10:41;1.70;;;1.43;;
7076;SDS011;3579;48.956;9.154;2023-03-01T04:13:13;1.50;;;1.40;;
7076;SDS011;3579;48.956;9.154;2023-03-01T04:15:42;1.33;;;1.23;;
7076;SDS011;3579;48.956;9.154;2023-03-01T04:18:08;1.80;;;1.50;;
7076;SDS011;3579;48.956;9.154;2023-03-01T04:20:40;1.40;;;1.30;;
7076;SDS011;3579;48.956;9.154;2023-03-01T04:23:11;1.50;;;1.40;;
7076;SDS011;3579;48.956;9.154;2023-03-01T04:25:51;1.60;;;1.50;;
7076;SDS011;3579;48.956;9.154;2023-03-01T04:28:25;1.43;;;1.30;;
7076;SDS011;3579;48.956;9.154;2023-03-01T04:30:57;1.70;;;1.50;;
7076;SDS011;3579;48.956;9.154;2023-03-01T04:33:24;1.60;;;1.37;;
7076;SDS011;3579;48.956;9.154;2023-03-01T04:35:51;1.93;;;1.70;;
7076;SDS011;3579;48.956;9.154;2023-03-01T04:38:17;1.40;;;1.30;;
7076;SDS011;3579;48.956;9.154;2023-03-01T04:40:44;1.60;;;1.50;;
7076;SDS011;3579;48.956;9.154;2023-03-01T04:43:11;1.50;;;1.40;;
7076;SDS011;3579;48.956;9.154;2023-03-01T04:45:41;1.53;;;1.30;;
7076;SDS011;3579;48.956;9.154;2023-03-01T04:48:07;1.47;;;1.37;;
7076;SDS011;3579;48.956;9.154;2023-03-01T04:50:33;1.50;;;1.40;;
7076;SDS011;3579;48.956;9.154;2023-03-01T04:53:00;1.73;;;1.50;;
7076;SDS011;3579;48.956;9.154;2023-03-01T04:55:26;1.90;;;1.50;;
7076;SDS011;3579;48.956;9.154;2023-03-01T04:57:53;1.83;;;1.53;;
7076;SDS011;3579;48.956;9.154;2023-03-01T05:00:19;1.60;;;1.20;;
7076;SDS011;3579;48.956;9.154;2023-03-01T05:05:22;1.60;;;1.40;;
7076;SDS011;3579;48.956;9.154;2023-03-01T05:07:57;1.37;;;1.27;;
7076;SDS011;3579;48.956;9.154;2023-03-01T05:10:25;1.50;;;1.37;;
7076;SDS011;3579;48.956;9.154;2023-03-01T05:12:54;1.50;;;1.40;;
7076;SDS011;3579;48.956;9.154;2023-03-01T05:15:23;1.60;;;1.40;;
7076;SDS011;3579;48.956;9.154;2023-03-01T05:17:54;1.50;;;1.40;;
7076;SDS011;3579;48.956;9.154;2023-03-01T05:20:21;1.60;;;1.50;;
7076;SDS011;3579;48.956;9.154;2023-03-01T05:22:50;1.40;;;1.30;;
7076;SDS011;3579;48.956;9.154;2023-03-01T05:25:19;1.43;;;1.33;;
7076;SDS011;3579;48.956;9.154;2023-03-01T05:27:46;1.77;;;1.30;;
7076;SDS011;3579;48.956;9.154;2023-03-01T05:30:12;1.60;;;1.40;;
7076;SDS011;3579;48.956;9.154;2023-03-01T05:32:40;1.30;;;1.20;;
7076;SDS011;3579;48.956;9.154;2023-03-01T05:35:14;1.40;;;1.30;;
7076;SDS011;3579;48.956;9.154;2023-03-01T05:37:45;1.70;;;1.37;;
7076;SDS011;3579;48.956;9.154;2023-03-01T05:40:14;1.80;;;1.50;;
7076;SDS011;3579;48.956;9.154;2023-03-01T05:42:46;1.60;;;1.40;;
7076;SDS011;3579;48.956;9.154;2023-03-01T05:45:14;1.37;;;1.27;;
7076;SDS011;3579;48.956;9.154;2023-03-01T05:47:42;1.23;;;1.13;;
7076;SDS011;3579;48.956;9.154;2023-03-01T05:50:10;1.50;;;1.33;;
7076;SDS011;3579;48.956;9.154;2023-03-01T05:52:37;1.93;;;1.47;;
7076;SDS011;3579;48.956;9.154;2023-03-01T05:55:03;2.20;;;1.53;;
7076;SDS011;3579;48.956;9.154;2023-03-01T05:57:29;1.40;;;1.30;;
7076;SDS011;3579;48.956;9.154;2023-03-01T05:59:55;1.43;;;1.30;;
7076;SDS011;3579;48.956;9.154;2023-03-01T06:02:21;1.60;;;1.40;;
7076;SDS011;3579;48.956;9.154;2023-03-01T06:04:47;1.53;;;1.30;;
7076;SDS011;3579;48.956;9.154;2023-03-01T06:07:13;1.50;;;1.40;;
7076;SDS011;3579;48.956;9.154;2023-03-01T06:09:39;1.60;;;1.40;;
7076;SDS011;3579;48.956;9.154;2023-03-01T06:12:05;1.57;;;1.30;;
7076;SDS011;3579;48.956;9.154;2023-03-01T06:14:32;1.40;;;1.30;;
7076;SDS011;3579;48.956;9.154;2023-03-01T06:16:58;1.60;;;1.50;;
7076;SDS011;3579;48.956;9.154;2023-03-01T06:19:24;1.57;;;1.43;;
7076;SDS011;3579;48.956;9.154;2023-03-01T06:21:50;1.60;;;1.47;;
7076;SDS011;3579;48.956;9.154;2023-03-01T06:24:16;1.67;;;1.40;;
7076;SDS011;3579;48.956;9.154;2023-03-01T06:26:42;1.50;;;1.40;;
7076;SDS011;3579;48.956;9.154;2023-03-01T06:29:08;1.60;;;1.37;;
7076;SDS011;3579;48.956;9.154;2023-03-01T06:31:34;1.87;;;1.47;;
7076;SDS011;3579;48.956;9.154;2023-03-01T06:34:00;1.47;;;1.37;;
7076;SDS011;3579;48.956;9.154;2023-03-01T06:36:26;1.57;;;1.47;;
7076;SDS011;3579;48.956;9.154;2023-03-01T06:38:52;1.87;;;1.60;;
7076;SDS011;3579;48.956;9.154;2023-03-01T06:41:18;1.50;;;1.40;;
7076;SDS011;3579;48.956;9.154;2023-03-01T06:43:44;1.50;;;1.40;;
7076;SDS011;3579;48.956;9.154;2023-03-01T06:46:10;1.73;;;1.43;;
7076;SDS011;3579;48.956;9.154;2023-03-01T06:48:36;1.90;;;1.60;;
7076;SDS011;3579;48.956;9.154;2023-03-01T06:51:02;1.87;;;1.60;;
7076;SDS011;3579;48.956;9.154;2023-03-01T06:53:28;1.73;;;1.60;;
7076;SDS011;3579;48.956;9.154;2023-03-01T06:55:58;1.80;;;1.50;;
7076;SDS011;3579;48.956;9.154;2023-03-01T06:58:27;2.77;;;1.80;;
7076;SDS011;3579;48.956;9.154;2023-03-01T07:00:53;2.57;;;2.00;;
7076;SDS011;3579;48.956;9.154;2023-03-01T07:03:19;1.70;;;1.60;;
7076;SDS011;3579;48.956;9.154;2023-03-01T07:05:45;1.90;;;1.70;;
7076;SDS011;3579;48.956;9.154;2023-03-01T07:08:14;2.30;;;1.70;;
7076;SDS011;3579;48.956;9.154;2023-03-01T07:10:40;2.30;;;1.80;;
7076;SDS011;3579;48.956;9.154;2023-03-01T07:13:07;2.30;;;2.00;;
7076;SDS011;3579;48.956;9.154;2023-03-01T07:15:33;2.10;;;1.70;;
7076;SDS011;3579;48.956;9.154;2023-03-01T07:18:00;1.80;;;1.70;;
7076;SDS011;3579;48.956;9.154;2023-03-01T07:20:26;2.57;;;1.83;;
7076;SDS011;3579;48.956;9.154;2023-03-01T07:22:52;1.97;;;1.77;;
7076;SDS011;3579;48.956;9.154;2023-03-01T07:25:19;2.60;;;2.17;;
7076;SDS011;3579;48.956;9.154;2023-03-01T07:27:54;2.33;;;2.13;;
7076;SDS011;3579;48.956;9.154;2023-03-01T07:30:20;2.97;;;2.03;;
7076;SDS011;3579;48.956;9.154;2023-03-01T07:32:46;2.90;;;2.10;;
7076;SDS011;3579;48.956;9.154;2023-03-01T07:35:12;2.07;;;1.87;;
7076;SDS011;3579;48.956;9.154;2023-03-01T07:37:40;2.40;;;2.20;;
7076;SDS011;3579;48.956;9.154;2023-03-01T07:40:06;2.53;;;2.03;;
7076;SDS011;3579;48.956;9.154;2023-03-01T07:42:33;2.87;;;2.30;;
7076;SDS011;3579;48.956;9.154;2023-03-01T07:44:59;2.97;;;2.43;;
7076;SDS011;3579;48.956;9.154;2023-03-01T07:47:25;2.20;;;1.90;;
7076;SDS011;3579;48.956;9.154;2023-03-01T07:49:51;2.53;;;2.17;;
7076;SDS011;3579;48.956;9.154;2023-03-01T07:52:17;3.27;;;2.43;;
7076;SDS011;3579;48.956;9.154;2023-03-01T07:54:43;2.73;;;2.40;;
7076;SDS011;3579;48.956;9.154;2023-03-01T07:57:10;2.50;;;2.20;;
7076;SDS011;3579;48.956;9.154;2023-03-01T07:59:36;2.60;;;2.03;;
7076;SDS011;3579;48.956;9.154;2023-03-01T08:02:02;3.30;;;2.13;;
7076;SDS011;3579;48.956;9.154;2023-03-01T08:04:29;2.50;;;2.13;;
7076;SDS011;3579;48.956;9.154;2023-03-01T08:06:55;3.20;;;2.50;;
7076;SDS011;3579;48.956;9.154;2023-03-01T08:09:21;3.40;;;2.60;;
7076;SDS011;3579;48.956;9.154;2023-03-01T08:11:47;2.87;;;2.47;;
7076;SDS011;3579;48.956;9.154;2023-03-01T08:14:13;3.20;;;2.57;;
7076;SDS011;3579;48.956;9.154;2023-03-01T08:16:40;6.57;;;2.50;;
7076;SDS011;3579;48.956;9.154;2023-03-01T08:19:10;6.07;;;2.67;;
7076;SDS011;3579;48.956;9.154;2023-03-01T08:21:37;4.20;;;2.30;;
7076;SDS011;3579;48.956;9.154;2023-03-01T08:24:03;4.13;;;2.53;;
7076;SDS011;3579;48.956;9.154;2023-03-01T08:26:31;4.50;;;2.10;;
7076;SDS011;3579;48.956;9.154;2023-03-01T08:28:58;4.83;;;2.50;;
7076;SDS011;3579;48.956;9.154;2023-03-01T08:31:26;6.57;;;2.93;;
7076;SDS011;3579;48.956;9.154;2023-03-01T08:33:59;3.47;;;2.63;;
7076;SDS011;3579;48.956;9.154;2023-03-01T08:36:39;3.77;;;2.40;;
7076;SDS011;3579;48.956;9.154;2023-03-01T08:39:14;3.60;;;2.70;;
7076;SDS011;3579;48.956;9.154;2023-03-01T08:41:42;3.50;;;2.57;;
7076;SDS011;3579;48.956;9.154;2023-03-01T08:44:09;5.40;;;2.67;;
7076;SDS011;3579;48.956;9.154;2023-03-01T08:46:37;4.03;;;3.07;;
7076;SDS011;3579;48.956;9.154;2023-03-01T08:49:06;5.67;;;2.83;;
7076;SDS011;3579;48.956;9.154;2023-03-01T08:51:34;3.10;;;2.43;;
7076;SDS011;3579;48.956;9.154;2023-03-01T08:54:06;4.07;;;3.00;;
7076;SDS011;3579;48.956;9.154;2023-03-01T08:56:35;3.60;;;2.60;;
7076;SDS011;3579;48.956;9.154;2023-03-01T08:59:01;4.03;;;2.80;;
7076;SDS011;3579;48.956;9.154;2023-03-01T09:01:27;3.33;;;2.77;;
7076;SDS011;3579;48.956;9.154;2023-03-01T09:03:53;4.90;;;3.10;;
7076;SDS011;3579;48.956;9.154;2023-03-01T09:06:19;3.93;;;2.87;;
7076;SDS011;3579;48.956;9.154;2023-03-01T09:08:47;5.47;;;2.50;;
7076;SDS011;3579;48.956;9.154;2023-03-01T09:11:16;5.60;;;3.20;;
7076;SDS011;3579;48.956;9.154;2023-03-01T09:13:45;4.60;;;3.00;;
7076;SDS011;3579;48.956;9.154;2023-03-01T09:16:13;4.60;;;2.80;;
7076;SDS011;3579;48.956;9.154;2023-03-01T09:18:40;3.80;;;3.00;;
7076;SDS011;3579;48.956;9.154;2023-03-01T09:21:10;4.17;;;2.90;;
7076;SDS011;3579;48.956;9.154;2023-03-01T09:23:43;5.27;;;3.37;;
7076;SDS011;3579;48.956;9.154;2023-03-01T09:26:14;5.70;;;2.93;;
7076;SDS011;3579;48.956;9.154;2023-03-01T09:28:42;5.87;;;3.10;;
7076;SDS011;3579;48.956;9.154;2023-03-01T09:31:10;6.23;;;3.37;;
7076;SDS011;3579;48.956;9.154;2023-03-01T09:33:40;3.73;;;3.03;;
7076;SDS011;3579;48.956;9.154;2023-03-01T09:36:11;11.57;;;9.60;;
7076;SDS011;3579;48.956;9.154;2023-03-01T09:38:39;12.32;;;9.40;;
7076;SDS011;3579;48.956;9.154;2023-03-01T09:41:41;14.47;;;11.27;;
7076;SDS011;3579;48.956;9.154;2023-03-01T09:44:15;14.30;;;12.30;;
7076;SDS011;3579;48.956;9.154;2023-03-01T09:46:49;15.30;;;10.27;;
7076;SDS011;3579;48.956;9.154;2023-03-01T09:49:23;15.40;;;9.43;;
7076;SDS011;3579;48.956;9.154;2023-03-01T09:54:24;9.00;;;7.47;;
7076;SDS011;3579;48.956;9.154;2023-03-01T09:59:21;11.40;;;7.10;;
7076;SDS011;3579;48.956;9.154;2023-03-01T10:04:50;10.40;;;6.30;;
7076;SDS011;3579;48.956;9.154;2023-03-01T10:07:25;9.87;;;6.23;;
7076;SDS011;3579;48.956;9.154;2023-03-01T10:09:58;8.80;;;6.47;;
7076;SDS011;3579;48.956;9.154;2023-03-01T10:12:33;7.97;;;5.80;;
7076;SDS011;3579;48.956;9.154;2023-03-01T10:17:37;8.83;;;6.30;;
7076;SDS011;3579;48.956;9.154;2023-03-01T10:20:14;8.70;;;6.10;;
7076;SDS011;3579;48.956;9.154;2023-03-01T10:22:48;8.67;;;5.50;;
7076;SDS011;3579;48.956;9.154;2023-03-01T10:25:28;8.63;;;5.50;;
7076;SDS011;3579;48.956;9.154;2023-03-01T10:28:14;7.70;;;5.57;;
7076;SDS011;3579;48.956;9.154;2023-03-01T10:30:45;10.07;;;5.10;;
7076;SDS011;3579;48.956;9.154;2023-03-01T10:33:25;7.57;;;4.67;;
7076;SDS011;3579;48.956;9.154;2023-03-01T10:35:54;5.70;;;4.53;;
7076;SDS011;3579;48.956;9.154;2023-03-01T10:38:20;5.50;;;4.60;;
7076;SDS011;3579;48.956;9.154;2023-03-01T10:40:54;6.07;;;5.23;;
7076;SDS011;3579;48.956;9.154;2023-03-01T10:43:23;7.20;;;4.57;;
7076;SDS011;3579;48.956;9.154;2023-03-01T10:46:21;5.33;;;4.40;;
7076;SDS011;3579;48.956;9.154;2023-03-01T10:48:59;8.10;;;5.20;;
7076;SDS011;3579;48.956;9.154;2023-03-01T10:51:46;6.67;;;4.80;;
7076;SDS011;3579;48.956;9.154;2023-03-01T10:57:04;5.60;;;4.37;;
7076;SDS011;3579;48.956;9.154;2023-03-01T11:04:30;6.73;;;4.40;;
7076;SDS011;3579;48.956;9.154;2023-03-01T11:06:59;7.87;;;4.77;;
7076;SDS011;3579;48.956;9.154;2023-03-01T11:09:26;7.03;;;4.07;;
7076;SDS011;3579;48.956;9.154;2023-03-01T11:12:03;7.47;;;4.60;;
7076;SDS011;3579;48.956;9.154;2023-03-01T11:14:39;6.03;;;4.40;;
7076;SDS011;3579;48.956;9.154;2023-03-01T11:22:55;5.63;;;4.53;;
7076;SDS011;3579;48.956;9.154;2023-03-01T11:25:26;5.83;;;4.97;;
7076;SDS011;3579;48.956;9.154;2023-03-01T11:27:57;7.43;;;4.20;;
7076;SDS011;3579;48.956;9.154;2023-03-01T11:30:36;7.17;;;4.10;;
7076;SDS011;3579;48.956;9.154;2023-03-01T11:35:53;4.87;;;4.10;;
7076;SDS011;3579;48.956;9.154;2023-03-01T11:38:26;6.23;;;4.30;;
7076;SDS011;3579;48.956;9.154;2023-03-01T11:40:59;5.23;;;3.87;;
7076;SDS011;3579;48.956;9.154;2023-03-01T11:43:37;6.07;;;4.20;;
7076;SDS011;3579;48.956;9.154;2023-03-01T11:57:11;4.80;;;3.63;;
7076;SDS011;3579;48.956;9.154;2023-03-01T12:02:16;7.17;;;3.60;;
7076;SDS011;3579;48.956;9.154;2023-03-01T12:05:17;5.17;;;4.17;;
7076;SDS011;3579;48.956;9.154;2023-03-01T12:20:55;8.60;;;6.67;;
7076;SDS011;3579;48.956;9.154;2023-03-01T12:26:38;11.97;;;9.77;;
7076;SDS011;3579;48.956;9.154;2023-03-01T12:32:11;11.10;;;8.90;;
7076;SDS011;3579;48.956;9.154;2023-03-01T12:35:05;13.03;;;10.60;;
7076;SDS011;3579;48.956;9.154;2023-03-01T12:43:33;16.40;;;10.77;;
7076;SDS011;3579;48.956;9.154;2023-03-01T12:46:28;13.23;;;11.27;;
7076;SDS011;3579;48.956;9.154;2023-03-01T12:51:31;10.20;;;8.33;;
7076;SDS011;3579;48.956;9.154;2023-03-01T12:54:01;9.33;;;7.43;;
7076;SDS011;3579;48.956;9.154;2023-03-01T12:56:37;9.43;;;7.03;;
7076;SDS011;3579;48.956;9.154;2023-03-01T13:02:17;11.50;;;6.50;;
7076;SDS011;3579;48.956;9.154;2023-03-01T13:10:26;7.37;;;6.10;;
7076;SDS011;3579;48.956;9.154;2023-03-01T13:13:08;8.00;;;6.30;;
7076;SDS011;3579;48.956;9.154;2023-03-01T13:15:40;8.00;;;6.13;;
7076;SDS011;3579;48.956;9.154;2023-03-01T13:23:22;11.30;;;5.63;;
7076;SDS011;3579;48.956;9.154;2023-03-01T13:26:01;8.47;;;5.60;;
7076;SDS011;3579;48.956;9.154;2023-03-01T13:30:57;8.20;;;5.37;;
7076;SDS011;3579;48.956;9.154;2023-03-01T13:35:59;7.40;;;5.93;;
7076;SDS011;3579;48.956;9.154;2023-03-01T13:46:50;6.20;;;5.40;;
7076;SDS011;3579;48.956;9.154;2023-03-01T13:49:19;8.37;;;5.20;;
7076;SDS011;3579;48.956;9.154;2023-03-01T13:51:48;7.33;;;5.30;;
7076;SDS011;3579;48.956;9.154;2023-03-01T13:54:16;5.93;;;4.97;;
7076;SDS011;3579;48.956;9.154;2023-03-01T13:56:52;7.83;;;5.40;;
7076;SDS011;3579;48.956;9.154;2023-03-01T13:59:20;7.33;;;4.60;;
7076;SDS011;3579;48.956;9.154;2023-03-01T14:01:54;6.43;;;5.37;;
7076;SDS011;3579;48.956;9.154;2023-03-01T14:09:43;10.60;;;5.27;;
7076;SDS011;3579;48.956;9.154;2023-03-01T14:15:32;6.53;;;4.77;;
7076;SDS011;3579;48.956;9.154;2023-03-01T14:18:09;7.23;;;5.30;;
7076;SDS011;3579;48.956;9.154;2023-03-01T14:20:43;6.13;;;5.23;;
7076;SDS011;3579;48.956;9.154;2023-03-01T14:23:21;9.47;;;5.07;;
7076;SDS011;3579;48.956;9.154;2023-03-01T14:25:49;7.00;;;4.60;;
7076;SDS011;3579;48.956;9.154;2023-03-01T14:28:21;8.23;;;4.63;;
7076;SDS011;3579;48.956;9.154;2023-03-01T14:30:52;8.07;;;4.60;;
7076;SDS011;3579;48.956;9.154;2023-03-01T14:33:24;9.87;;;4.93;;
7076;SDS011;3579;48.956;9.154;2023-03-01T14:36:08;9.93;;;5.63;;
7076;SDS011;3579;48.956;9.154;2023-03-01T14:38:42;8.03;;;5.23;;
7076;SDS011;3579;48.956;9.154;2023-03-01T14:41:17;8.13;;;4.93;;
7076;SDS011;3579;48.956;9.154;2023-03-01T14:43:46;7.53;;;4.93;;
7076;SDS011;3579;48.956;9.154;2023-03-01T14:46:42;7.10;;;4.70;;
7076;SDS011;3579;48.956;9.154;2023-03-01T14:49:10;8.60;;;4.53;;
7076;SDS011;3579;48.956;9.154;2023-03-01T14:51:38;5.73;;;4.80;;
7076;SDS011;3579;48.956;9.154;2023-03-01T14:54:19;8.37;;;4.60;;
7076;SDS011;3579;48.956;9.154;2023-03-01T14:56:57;7.27;;;4.70;;
7076;SDS011;3579;48.956;9.154;2023-03-01T14:59:25;6.70;;;4.17;;
7076;SDS011;3579;48.956;9.154;2023-03-01T15:01:51;5.47;;;4.67;;
7076;SDS011;3579;48.956;9.154;2023-03-01T15:04:21;6.07;;;4.60;;
7076;SDS011;3579;48.956;9.154;2023-03-01T15:06:52;5.47;;;4.40;;
7076;SDS011;3579;48.956;9.154;2023-03-01T15:09:20;5.33;;;4.60;;
7076;SDS011;3579;48.956;9.154;2023-03-01T15:11:47;6.63;;;4.70;;
7076;SDS011;3579;48.956;9.154;2023-03-01T15:17:35;6.40;;;4.70;;
7076;SDS011;3579;48.956;9.154;2023-03-01T15:20:03;5.47;;;4.40;;
7076;SDS011;3579;48.956;9.154;2023-03-01T15:22:32;9.67;;;5.00;;
7076;SDS011;3579;48.956;9.154;2023-03-01T15:24:58;6.83;;;4.63;;
7076;SDS011;3579;48.956;9.154;2023-03-01T15:27:25;7.00;;;5.00;;
7076;SDS011;3579;48.956;9.154;2023-03-01T15:29:56;11.17;;;4.50;;
7076;SDS011;3579;48.956;9.154;2023-03-01T15:34:52;8.17;;;4.90;;
7076;SDS011;3579;48.956;9.154;2023-03-01T15:37:36;6.77;;;4.80;;
7076;SDS011;3579;48.956;9.154;2023-03-01T15:40:17;7.53;;;4.73;;
7076;SDS011;3579;48.956;9.154;2023-03-01T15:43:04;7.27;;;4.87;;
7076;SDS011;3579;48.956;9.154;2023-03-01T15:45:31;6.07;;;4.57;;
7076;SDS011;3579;48.956;9.154;2023-03-01T15:48:18;8.10;;;5.03;;
7076;SDS011;3579;48.956;9.154;2023-03-01T15:50:46;5.80;;;4.20;;
7076;SDS011;3579;48.956;9.154;2023-03-01T15:53:21;6.00;;;4.70;;
7076;SDS011;3579;48.956;9.154;2023-03-01T15:55:47;7.50;;;4.30;;
7076;SDS011;3579;48.956;9.154;2023-03-01T15:58:19;9.30;;;4.73;;
7076;SDS011;3579;48.956;9.154;2023-03-01T16:00:50;7.10;;;4.13;;
7076;SDS011;3579;48.956;9.154;2023-03-01T16:03:22;9.10;;;4.83;;
7076;SDS011;3579;48.956;9.154;2023-03-01T16:05:48;11.77;;;8.75;;
7076;SDS011;3579;48.956;9.154;2023-03-01T16:08:15;11.13;;;8.53;;
7076;SDS011;3579;48.956;9.154;2023-03-01T16:10:42;11.00;;;7.43;;
7076;SDS011;3579;48.956;9.154;2023-03-01T16:13:11;7.57;;;6.20;;
7076;SDS011;3579;48.956;9.154;2023-03-01T16:15:38;8.83;;;5.87;;
7076;SDS011;3579;48.956;9.154;2023-03-01T16:18:05;7.57;;;5.90;;
7076;SDS011;3579;48.956;9.154;2023-03-01T16:20:33;6.80;;;5.03;;
7076;SDS011;3579;48.956;9.154;2023-03-01T16:23:00;8.83;;;5.13;;
7076;SDS011;3579;48.956;9.154;2023-03-01T16:25:28;9.33;;;5.37;;
7076;SDS011;3579;48.956;9.154;2023-03-01T16:27:54;9.63;;;5.30;;
7076;SDS011;3579;48.956;9.154;2023-03-01T16:30:21;6.50;;;4.93;;
7076;SDS011;3579;48.956;9.154;2023-03-01T16:32:48;10.63;;;5.47;;
7076;SDS011;3579;48.956;9.154;2023-03-01T16:35:17;6.43;;;5.00;;
7076;SDS011;3579;48.956;9.154;2023-03-01T16:37:45;4.90;;;4.40;;
7076;SDS011;3579;48.956;9.154;2023-03-01T16:40:19;8.03;;;5.00;;
7076;SDS011;3579;48.956;9.154;2023-03-01T16:42:48;6.80;;;4.70;;
7076;SDS011;3579;48.956;9.154;2023-03-01T16:45:15;6.87;;;4.27;;
7076;SDS011;3579;48.956;9.154;2023-03-01T16:47:41;8.93;;;5.07;;
7076;SDS011;3579;48.956;9.154;2023-03-01T16:50:08;9.20;;;4.60;;
7076;SDS011;3579;48.956;9.154;2023-03-01T16:52:35;11.03;;;4.60;;
7076;SDS011;3579;48.956;9.154;2023-03-01T16:55:02;11.23;;;4.47;;
7076;SDS011;3579;48.956;9.154;2023-03-01T16:57:30;5.27;;;4.30;;
7076;SDS011;3579;48.956;9.154;2023-03-01T16:59:56;6.57;;;4.30;;
7076;SDS011;3579;48.956;9.154;2023-03-01T17:02:22;6.33;;;3.83;;
7076;SDS011;3579;48.956;9.154;2023-03-01T17:04:52;4.80;;;4.30;;
7076;SDS011;3579;48.956;9.154;2023-03-01T17:07:19;5.90;;;4.27;;
7076;SDS011;3579;48.956;9.154;2023-03-01T17:09:45;7.80;;;4.47;;
7076;SDS011;3579;48.956;9.154;2023-03-01T17:12:12;6.90;;;4.60;;
7076;SDS011;3579;48.956;9.154;2023-03-01T17:14:39;6.63;;;4.40;;
7076;SDS011;3579;48.956;9.154;2023-03-01T17:17:07;6.07;;;4.07;;
7076;SDS011;3579;48.956;9.154;2023-03-01T17:19:33;5.53;;;4.10;;
7076;SDS011;3579;48.956;9.154;2023-03-01T17:22:02;6.20;;;4.40;;
7076;SDS011;3579;48.956;9.154;2023-03-01T17:24:31;7.73;;;4.37;;
7076;SDS011;3579;48.956;9.154;2023-03-01T17:27:02;6.13;;;4.20;;
7076;SDS011;3579;48.956;9.154;2023-03-01T17:29:28;6.27;;;3.80;;
7076;SDS011;3579;48.956;9.154;2023-03-01T17:31:55;7.60;;;4.00;;
7076;SDS011;3579;48.956;9.154;2023-03-01T17:34:22;5.13;;;4.27;;
7076;SDS011;3579;48.956;9.154;2023-03-01T17:36:48;5.77;;;4.50;;